createdAt,value
2022-11-19T00:01:29.758Z,21.86
2022-11-19T00:03:31.245Z,21.91
2022-11-19T00:05:32.717Z,21.93
2022-11-19T00:07:34.052Z,21.93
2022-11-19T00:09:35.397Z,21.92
2022-11-19T00:11:57.648Z,21.91
2022-11-19T00:13:59.233Z,21.92
2022-11-19T00:16:00.721Z,21.93
2022-11-19T00:18:02.145Z,21.92
2022-11-19T00:20:03.743Z,21.96
2022-11-19T00:22:05.357Z,21.99
2022-11-19T00:24:06.661Z,22.00
2022-11-19T00:26:08.160Z,21.96
2022-11-19T00:28:09.570Z,21.95
2022-11-19T00:30:32.558Z,21.89
2022-11-19T00:32:32.155Z,21.84
2022-11-19T00:34:33.633Z,21.81
2022-11-19T00:36:35.179Z,21.79
2022-11-19T00:38:36.636Z,21.78
2022-11-19T00:40:37.908Z,21.76
2022-11-19T00:42:40.089Z,21.73
2022-11-19T00:44:41.865Z,21.69
2022-11-19T00:46:43.350Z,21.67
2022-11-19T00:48:44.686Z,21.64
2022-11-19T00:50:46.198Z,21.41
2022-11-19T00:52:47.540Z,21.63
2022-11-19T00:54:48.878Z,21.62
2022-11-19T00:56:50.224Z,21.61
2022-11-19T00:58:51.551Z,21.61
2022-11-19T01:00:52.883Z,21.69
2022-11-19T01:02:54.201Z,21.75
2022-11-19T01:04:55.626Z,21.77
2022-11-19T01:06:57.156Z,21.76
2022-11-19T01:08:58.677Z,21.85
2022-11-19T01:11:03.249Z,21.87
2022-11-19T01:13:23.023Z,21.92
2022-11-19T01:15:24.305Z,21.96
2022-11-19T01:17:25.725Z,21.98
2022-11-19T01:19:27.016Z,22.00
2022-11-19T01:21:28.504Z,22.05
2022-11-19T01:23:29.852Z,22.07
2022-11-19T01:25:31.364Z,22.05
2022-11-19T01:27:32.841Z,22.06
2022-11-19T01:29:34.145Z,22.05
2022-11-19T01:31:35.548Z,22.04
2022-11-19T01:33:37.056Z,22.00
2022-11-19T01:35:38.518Z,21.97
2022-11-19T01:37:39.812Z,21.93
2022-11-19T01:39:41.139Z,21.93
2022-11-19T01:41:43.577Z,21.89
2022-11-19T01:43:44.910Z,21.86
2022-11-19T01:45:48.516Z,21.85
2022-11-19T01:47:50.048Z,21.80
2022-11-19T01:49:51.329Z,21.79
2022-11-19T01:51:52.834Z,21.74
2022-11-19T01:53:54.131Z,21.69
2022-11-19T01:55:55.396Z,21.66
2022-11-19T01:57:56.829Z,21.63
2022-11-19T01:59:58.289Z,21.61
2022-11-19T02:01:59.552Z,21.63
2022-11-19T02:04:01.195Z,21.71
2022-11-19T02:06:02.817Z,21.75
2022-11-19T02:08:04.281Z,21.79
2022-11-19T02:10:05.583Z,21.80
2022-11-19T02:12:07.125Z,21.86
2022-11-19T02:14:08.460Z,21.90
2022-11-19T02:16:09.918Z,21.99
2022-11-19T02:18:11.189Z,22.02
2022-11-19T02:20:12.469Z,22.00
2022-11-19T02:22:13.921Z,22.02
2022-11-19T02:24:15.361Z,22.00
2022-11-19T02:26:17.752Z,22.00
2022-11-19T02:28:19.208Z,22.03
2022-11-19T02:30:20.540Z,22.14
2022-11-19T02:32:22.101Z,22.17
2022-11-19T02:34:23.780Z,22.18
2022-11-19T02:36:25.045Z,22.16
2022-11-19T02:38:26.600Z,22.12
2022-11-19T02:40:27.869Z,22.11
2022-11-19T02:42:29.356Z,22.07
2022-11-19T02:44:49.518Z,22.02
2022-11-19T02:46:50.877Z,22.00
2022-11-19T02:48:52.157Z,22.00
2022-11-19T02:50:53.569Z,21.95
2022-11-19T02:52:54.858Z,21.90
2022-11-19T02:54:56.401Z,21.92
2022-11-19T02:57:00.704Z,21.90
2022-11-19T02:59:21.450Z,21.87
2022-11-19T03:01:41.424Z,21.85
2022-11-19T03:04:02.104Z,21.79
2022-11-19T03:06:03.556Z,21.77
2022-11-19T03:08:05.133Z,21.71
2022-11-19T03:10:07.140Z,21.68
2022-11-19T03:12:08.581Z,21.64
2022-11-19T03:14:28.554Z,21.67
2022-11-19T03:16:41.964Z,21.69
2022-11-19T03:18:43.260Z,21.73
2022-11-19T03:20:44.740Z,21.78
2022-11-19T03:22:46.194Z,21.91
2022-11-19T03:24:47.635Z,22.02
2022-11-19T03:26:49.152Z,22.09
2022-11-19T03:28:50.697Z,22.17
2022-11-19T03:30:52.184Z,22.20
2022-11-19T03:32:53.628Z,22.21
2022-11-19T03:34:55.085Z,22.23
2022-11-19T03:36:56.687Z,22.27
2022-11-19T03:38:58.235Z,22.29
2022-11-19T03:40:59.544Z,22.25
2022-11-19T03:43:01.131Z,22.24
2022-11-19T03:45:02.703Z,22.20
2022-11-19T03:47:04.464Z,22.18
2022-11-19T03:49:05.935Z,22.15
2022-11-19T03:51:07.340Z,22.06
2022-11-19T03:53:08.758Z,22.01
2022-11-19T03:55:10.270Z,21.98
2022-11-19T03:57:11.662Z,21.96
2022-11-19T03:59:13.677Z,21.92
2022-11-19T04:01:14.972Z,21.86
2022-11-19T04:03:16.468Z,21.80
2022-11-19T04:05:17.760Z,21.75
2022-11-19T04:07:19.109Z,21.69
2022-11-19T04:09:21.449Z,21.65
2022-11-19T04:13:23.305Z,21.58
2022-11-19T04:15:24.588Z,21.54
2022-11-19T04:17:25.872Z,21.53
2022-11-19T04:19:27.360Z,21.57
2022-11-19T04:21:28.837Z,21.63
2022-11-19T04:23:30.162Z,21.67
2022-11-19T04:25:31.460Z,21.76
2022-11-19T04:27:32.728Z,21.77
2022-11-19T04:29:34.029Z,21.90
2022-11-19T04:31:35.377Z,21.96
2022-11-19T04:33:36.724Z,22.01
2022-11-19T04:35:38.005Z,22.05
2022-11-19T04:37:39.293Z,22.05
2022-11-19T04:39:40.581Z,22.11
2022-11-19T04:41:41.863Z,22.18
2022-11-19T04:43:43.144Z,22.22
2022-11-19T04:45:44.468Z,22.22
2022-11-19T04:47:45.743Z,22.29
2022-11-19T04:49:47.037Z,22.26
2022-11-19T04:51:48.328Z,22.24
2022-11-19T04:53:49.616Z,22.24
2022-11-19T04:55:50.935Z,22.25
2022-11-19T04:57:53.361Z,22.22
2022-11-19T04:59:54.653Z,22.16
2022-11-19T05:01:56.064Z,22.12
2022-11-19T05:03:57.470Z,22.03
2022-11-19T05:05:58.765Z,21.95
2022-11-19T05:08:00.048Z,21.89
2022-11-19T05:10:01.369Z,21.85
2022-11-19T05:12:02.657Z,21.78
2022-11-19T05:14:03.973Z,21.73
2022-11-19T05:16:05.531Z,21.71
2022-11-19T05:18:06.803Z,21.62
2022-11-19T05:20:08.081Z,21.54
2022-11-19T05:22:09.366Z,21.47
2022-11-19T05:24:10.665Z,21.42
2022-11-19T05:26:11.959Z,21.40
2022-11-19T05:28:13.256Z,21.40
2022-11-19T05:30:14.573Z,21.38
2022-11-19T05:32:15.881Z,21.39
2022-11-19T05:34:17.203Z,21.45
2022-11-19T05:36:18.517Z,21.53
2022-11-19T05:38:19.845Z,21.64
2022-11-19T05:40:21.130Z,21.71
2022-11-19T05:42:22.417Z,21.80
2022-11-19T05:44:23.740Z,21.90
2022-11-19T05:46:25.006Z,21.95
2022-11-19T05:48:26.318Z,21.99
2022-11-19T05:50:27.584Z,22.06
2022-11-19T05:52:28.870Z,22.12
2022-11-19T05:54:30.387Z,22.17
2022-11-19T05:56:31.724Z,22.19
2022-11-19T05:58:33.072Z,21.41
2022-11-19T06:00:34.356Z,22.20
2022-11-19T06:02:35.649Z,22.20
2022-11-19T06:04:37.029Z,22.19
2022-11-19T06:06:38.358Z,22.22
2022-11-19T06:08:39.640Z,22.24
2022-11-19T06:10:40.919Z,22.23
2022-11-19T06:12:45.487Z,22.19
2022-11-19T06:14:47.364Z,22.13
2022-11-19T06:16:48.715Z,22.08
2022-11-19T06:18:50.045Z,22.02
2022-11-19T06:20:51.325Z,21.96
2022-11-19T06:22:52.628Z,21.97
2022-11-19T06:24:53.901Z,22.01
2022-11-19T06:26:55.192Z,22.05
2022-11-19T06:28:56.479Z,21.85
2022-11-19T06:30:57.759Z,21.82
2022-11-19T06:32:59.056Z,21.76
2022-11-19T06:35:00.398Z,21.71
2022-11-19T06:37:01.685Z,21.67
2022-11-19T06:39:02.993Z,21.65
2022-11-19T06:41:04.341Z,21.66
2022-11-19T06:43:05.623Z,21.64
2022-11-19T06:45:06.927Z,21.64
2022-11-19T06:47:08.269Z,21.65
2022-11-19T06:49:18.483Z,21.70
2022-11-19T06:51:21.308Z,21.75
2022-11-19T06:53:22.586Z,21.83
2022-11-19T06:55:23.925Z,21.95
2022-11-19T06:57:25.262Z,22.06
2022-11-19T06:59:26.550Z,22.14
2022-11-19T07:01:28.124Z,22.20
2022-11-19T07:03:29.439Z,22.26
2022-11-19T07:05:33.535Z,22.27
2022-11-19T07:07:34.949Z,22.25
2022-11-19T07:09:36.303Z,22.17
2022-11-19T07:11:37.600Z,22.09
2022-11-19T07:13:57.234Z,22.04
2022-11-19T07:15:58.551Z,21.95
2022-11-19T07:17:59.944Z,21.87
2022-11-19T07:20:01.234Z,21.81
2022-11-19T07:22:02.505Z,21.80
2022-11-19T07:24:03.784Z,21.77
2022-11-19T07:26:05.088Z,21.76
2022-11-19T07:28:06.441Z,21.76
2022-11-19T07:30:08.700Z,21.79
2022-11-19T07:32:10.052Z,21.82
2022-11-19T07:34:11.388Z,21.88
2022-11-19T07:36:17.004Z,21.88
2022-11-19T07:38:19.560Z,21.85
2022-11-19T07:40:20.838Z,21.93
2022-11-19T07:42:40.769Z,21.98
2022-11-19T07:44:42.052Z,22.05
2022-11-19T07:46:43.386Z,22.12
2022-11-19T07:48:44.689Z,22.24
2022-11-19T07:50:45.984Z,22.48
2022-11-19T07:52:47.307Z,22.47
2022-11-19T07:54:48.634Z,22.33
2022-11-19T07:56:49.989Z,22.09
2022-11-19T07:58:51.272Z,21.82
2022-11-19T08:00:52.553Z,21.78
2022-11-19T08:02:53.849Z,21.89
2022-11-19T08:04:55.168Z,21.87
2022-11-19T08:06:56.476Z,21.83
2022-11-19T08:08:57.913Z,21.78
2022-11-19T08:10:59.251Z,21.78
2022-11-19T08:13:03.652Z,21.74
2022-11-19T08:15:05.186Z,21.72
2022-11-19T08:17:25.057Z,21.69
2022-11-19T08:19:26.539Z,21.66
2022-11-19T08:21:27.824Z,21.66
2022-11-19T08:23:29.125Z,21.65
2022-11-19T08:25:33.744Z,21.65
2022-11-19T08:27:35.190Z,21.65
2022-11-19T08:29:36.481Z,21.63
2022-11-19T08:31:37.776Z,21.63
2022-11-19T08:33:39.064Z,21.63
2022-11-19T08:35:40.345Z,20.83
2022-11-19T08:37:41.657Z,21.65
2022-11-19T08:39:42.950Z,21.66
2022-11-19T08:42:03.143Z,21.66
2022-11-19T08:44:04.436Z,21.69
2022-11-19T08:46:05.727Z,21.71
2022-11-19T08:48:07.074Z,21.73
2022-11-19T08:50:08.480Z,21.74
2022-11-19T08:52:09.760Z,21.76
2022-11-19T08:54:11.127Z,21.77
2022-11-19T08:56:16.851Z,21.76
2022-11-19T08:58:19.379Z,21.77
2022-11-19T09:00:23.600Z,21.78
2022-11-19T09:02:24.884Z,21.75
2022-11-19T09:04:26.186Z,21.75
2022-11-19T09:06:27.665Z,21.73
2022-11-19T09:08:29.021Z,21.72
2022-11-19T09:10:30.504Z,21.70
2022-11-19T09:12:34.737Z,21.69
2022-11-19T09:14:36.025Z,21.68
2022-11-19T09:16:37.349Z,21.67
2022-11-19T09:18:40.092Z,21.68
2022-11-19T09:20:41.408Z,21.67
2022-11-19T09:22:42.889Z,21.66
2022-11-19T09:24:44.220Z,21.68
2022-11-19T09:26:50.237Z,21.71
2022-11-19T09:28:53.828Z,21.70
2022-11-19T09:30:55.177Z,21.72
2022-11-19T09:32:56.489Z,21.74
2022-11-19T09:34:57.795Z,21.77
2022-11-19T09:36:59.120Z,17.39
2022-11-19T09:39:02.198Z,15.56
2022-11-19T09:41:03.497Z,15.47
2022-11-19T09:43:04.886Z,18.10
2022-11-19T09:45:06.189Z,19.91
2022-11-19T09:47:07.517Z,20.80
2022-11-19T09:49:08.796Z,21.23
2022-11-19T09:51:10.151Z,21.46
2022-11-19T09:53:11.443Z,21.67
2022-11-19T09:55:12.768Z,22.06
2022-11-19T09:57:14.054Z,22.79
2022-11-19T09:59:15.374Z,22.66
2022-11-19T10:01:17.388Z,22.97
2022-11-19T10:03:18.761Z,23.44
2022-11-19T10:05:20.149Z,23.66
2022-11-19T10:07:21.483Z,23.77
2022-11-19T10:09:23.021Z,23.73
2022-11-19T10:11:27.025Z,23.81
2022-11-19T10:13:28.302Z,24.00
2022-11-19T10:15:34.513Z,24.04
2022-11-19T10:17:38.577Z,24.08
2022-11-19T10:19:39.955Z,24.07
2022-11-19T10:21:41.318Z,24.17
2022-11-19T10:23:42.638Z,24.21
2022-11-19T10:25:43.985Z,24.15
2022-11-19T10:27:45.289Z,23.99
2022-11-19T10:29:46.556Z,23.89
2022-11-19T10:31:47.900Z,23.93
2022-11-19T10:33:49.170Z,23.64
2022-11-19T10:35:50.448Z,22.89
2022-11-19T10:37:51.868Z,22.54
2022-11-19T10:39:53.157Z,19.01
2022-11-19T10:41:54.455Z,16.99
2022-11-19T10:43:55.773Z,16.13
2022-11-19T10:45:57.113Z,15.47
2022-11-19T10:47:58.441Z,15.08
2022-11-19T10:49:59.779Z,14.85
2022-11-19T10:52:01.049Z,16.93
2022-11-19T10:54:03.668Z,18.61
2022-11-19T10:56:04.968Z,19.68
2022-11-19T10:58:06.244Z,20.23
2022-11-19T11:00:07.659Z,21.05
2022-11-19T11:02:08.965Z,21.57
2022-11-19T11:04:10.484Z,22.26
2022-11-19T11:06:12.204Z,22.57
2022-11-19T11:08:13.533Z,22.98
2022-11-19T11:10:14.809Z,22.76
2022-11-19T11:12:34.645Z,22.48
2022-11-19T11:14:54.821Z,22.89
2022-11-19T11:16:56.381Z,23.18
2022-11-19T11:18:57.668Z,23.18
2022-11-19T11:20:59.324Z,22.74
2022-11-19T11:23:00.656Z,22.43
2022-11-19T11:25:07.110Z,22.40
2022-11-19T11:27:08.833Z,22.90
2022-11-19T11:29:10.125Z,23.03
2022-11-19T11:31:11.412Z,23.06
2022-11-19T11:33:12.786Z,23.07
2022-11-19T11:35:16.230Z,23.15
2022-11-19T11:37:17.664Z,23.18
2022-11-19T11:39:19.058Z,23.19
2022-11-19T11:42:03.642Z,23.19
2022-11-19T11:44:01.253Z,23.12
2022-11-19T11:46:02.537Z,23.07
2022-11-19T11:48:03.804Z,23.03
2022-11-19T11:50:05.133Z,22.99
2022-11-19T11:52:07.001Z,22.96
2022-11-19T11:54:08.312Z,22.74
2022-11-19T11:56:09.785Z,22.44
2022-11-19T11:58:11.054Z,22.34
2022-11-19T12:00:12.331Z,22.17
2022-11-19T12:02:13.653Z,22.08
2022-11-19T12:04:17.872Z,21.85
2022-11-19T12:06:19.164Z,21.68
2022-11-19T12:08:24.267Z,21.69
2022-11-19T12:10:28.129Z,21.91
2022-11-19T12:12:29.404Z,22.22
2022-11-19T12:14:30.705Z,22.38
2022-11-19T12:16:32.037Z,22.43
2022-11-19T12:18:33.320Z,22.44
2022-11-19T12:20:37.265Z,22.49
2022-11-19T12:22:38.535Z,22.48
2022-11-19T12:24:39.920Z,22.50
2022-11-19T12:26:41.260Z,22.57
2022-11-19T12:28:42.742Z,22.59
2022-11-19T12:30:53.160Z,22.62
2022-11-19T12:32:54.481Z,22.53
2022-11-19T12:34:55.767Z,22.56
2022-11-19T12:37:00.250Z,22.50
2022-11-19T12:39:04.369Z,22.46
2022-11-19T12:41:05.657Z,22.44
2022-11-19T12:43:07.133Z,22.46
2022-11-19T12:45:08.401Z,22.41
2022-11-19T12:47:09.684Z,22.54
2022-11-19T12:49:11.025Z,22.47
2022-11-19T12:51:13.012Z,22.49
2022-11-19T12:53:14.303Z,22.67
2022-11-19T12:55:15.650Z,22.67
2022-11-19T12:57:17.100Z,22.69
2022-11-19T12:59:18.473Z,22.60
2022-11-19T13:01:19.968Z,22.48
2022-11-19T13:03:21.501Z,22.70
2022-11-19T13:05:22.940Z,23.09
2022-11-19T13:07:24.341Z,23.13
2022-11-19T13:09:25.654Z,22.92
2022-11-19T13:11:26.937Z,22.81
2022-11-19T13:13:28.276Z,22.77
2022-11-19T13:15:29.556Z,22.77
2022-11-19T13:17:30.840Z,22.73
2022-11-19T13:19:35.080Z,22.74
2022-11-19T13:21:36.361Z,22.68
2022-11-19T13:23:38.132Z,22.63
2022-11-19T13:25:39.424Z,22.58
2022-11-19T13:27:40.877Z,22.30
2022-11-19T13:29:42.216Z,22.10
2022-11-19T13:31:43.480Z,21.98
2022-11-19T13:33:44.832Z,21.91
2022-11-19T13:35:46.131Z,21.85
2022-11-19T13:37:47.417Z,21.79
2022-11-19T13:39:48.861Z,21.76
2022-11-19T13:42:08.653Z,21.72
2022-11-19T13:44:28.433Z,21.67
2022-11-19T13:46:29.723Z,21.63
2022-11-19T13:48:31.024Z,21.61
2022-11-19T13:50:32.304Z,21.58
2022-11-19T13:52:33.653Z,21.58
2022-11-19T13:54:35.120Z,21.55
2022-11-19T13:56:36.441Z,21.57
2022-11-19T13:58:40.436Z,21.58
2022-11-19T14:00:41.756Z,21.61
2022-11-19T14:02:43.045Z,21.67
2022-11-19T14:04:44.341Z,21.73
2022-11-19T14:06:45.672Z,21.80
2022-11-19T14:08:46.961Z,21.89
2022-11-19T14:10:48.249Z,21.98
2022-11-19T14:12:49.544Z,22.05
2022-11-19T14:15:09.652Z,22.12
2022-11-19T14:17:29.456Z,22.10
2022-11-19T14:19:49.236Z,22.12
2022-11-19T14:22:09.076Z,22.18
2022-11-19T14:24:42.647Z,22.25
2022-11-19T14:26:46.536Z,22.24
2022-11-19T14:28:49.987Z,22.25
2022-11-19T14:30:51.276Z,22.26
2022-11-19T14:32:52.629Z,22.23
2022-11-19T14:34:53.908Z,22.18
2022-11-19T14:36:55.193Z,22.10
2022-11-19T14:38:56.496Z,22.08
2022-11-19T14:40:57.781Z,22.02
2022-11-19T14:43:17.824Z,21.95
2022-11-19T14:45:19.300Z,21.86
2022-11-19T14:47:20.633Z,21.84
2022-11-19T14:49:22.331Z,21.76
2022-11-19T14:51:23.993Z,21.73
2022-11-19T14:53:25.272Z,21.68
2022-11-19T14:55:26.621Z,21.64
2022-11-19T14:57:27.973Z,21.59
2022-11-19T14:59:29.392Z,21.53
2022-11-19T15:01:30.679Z,21.50
2022-11-19T15:03:31.990Z,21.47
2022-11-19T15:05:34.133Z,21.42
2022-11-19T15:07:35.474Z,21.35
2022-11-19T15:09:36.777Z,21.28
2022-11-19T15:11:38.120Z,21.21
2022-11-19T15:13:40.667Z,21.17
2022-11-19T15:15:42.152Z,21.09
2022-11-19T15:17:43.447Z,20.27
2022-11-19T15:19:47.397Z,21.02
2022-11-19T15:21:48.767Z,21.07
2022-11-19T15:23:50.042Z,21.13
2022-11-19T15:25:51.324Z,21.23
2022-11-19T15:27:53.198Z,21.33
2022-11-19T15:29:54.476Z,21.43
2022-11-19T15:31:55.748Z,21.45
2022-11-19T15:33:57.144Z,21.53
2022-11-19T15:35:58.452Z,21.67
2022-11-19T15:37:59.744Z,21.71
2022-11-19T15:40:01.021Z,21.78
2022-11-19T15:42:02.656Z,21.81
2022-11-19T15:44:03.941Z,21.84
2022-11-19T15:46:05.460Z,21.88
2022-11-19T15:48:06.742Z,21.93
2022-11-19T15:50:08.029Z,21.96
2022-11-19T15:52:14.460Z,21.98
2022-11-19T15:54:18.899Z,22.03
2022-11-19T15:56:20.212Z,22.06
2022-11-19T15:58:21.509Z,22.03
2022-11-19T16:00:23.052Z,21.28
2022-11-19T16:02:24.390Z,22.06
2022-11-19T16:04:25.681Z,22.10
2022-11-19T16:06:27.008Z,22.09
2022-11-19T16:08:28.333Z,22.11
2022-11-19T16:10:29.810Z,22.05
2022-11-19T16:12:49.478Z,22.03
2022-11-19T16:15:09.327Z,21.98
2022-11-19T16:17:29.228Z,21.94
2022-11-19T16:19:30.496Z,21.89
2022-11-19T16:21:31.821Z,17.78
2022-11-19T16:23:53.083Z,20.11
2022-11-19T16:25:57.348Z,21.74
2022-11-19T16:27:58.655Z,22.28
2022-11-19T16:30:02.626Z,22.51
2022-11-19T16:32:04.403Z,22.57
2022-11-19T16:34:05.684Z,22.52
2022-11-19T16:36:07.005Z,22.55
2022-11-19T16:38:08.284Z,22.58
2022-11-19T16:40:09.573Z,22.64
2022-11-19T16:42:19.964Z,22.70
2022-11-19T16:44:22.185Z,22.92
2022-11-19T16:46:23.784Z,22.81
2022-11-19T16:48:25.352Z,22.37
2022-11-19T16:50:27.140Z,22.45
2022-11-19T16:52:28.457Z,22.76
2022-11-19T16:54:29.747Z,22.82
2022-11-19T16:56:31.029Z,22.88
2022-11-19T16:58:32.357Z,22.91
2022-11-19T17:00:33.698Z,22.94
2022-11-19T17:02:35.030Z,22.95
2022-11-19T17:04:36.316Z,22.91
2022-11-19T17:06:37.774Z,22.99
2022-11-19T17:08:39.146Z,22.97
2022-11-19T17:10:43.392Z,22.92
2022-11-19T17:12:44.693Z,22.86
2022-11-19T17:14:46.045Z,22.82
2022-11-19T17:16:47.376Z,22.73
2022-11-19T17:18:48.693Z,22.65
2022-11-19T17:20:50.608Z,22.23
2022-11-19T17:22:51.944Z,22.13
2022-11-19T17:24:53.244Z,22.35
2022-11-19T17:26:54.638Z,22.38
2022-11-19T17:28:56.280Z,22.52
2022-11-19T17:30:59.724Z,22.50
2022-11-19T17:33:01.035Z,22.50
2022-11-19T17:35:02.722Z,22.51
2022-11-19T17:37:03.988Z,22.54
2022-11-19T17:39:05.272Z,22.55
2022-11-19T17:41:07.462Z,22.57
2022-11-19T17:43:28.309Z,22.60
2022-11-19T17:45:32.637Z,22.70
2022-11-19T17:47:33.943Z,22.75
2022-11-19T17:49:35.271Z,22.83
2022-11-19T17:51:36.584Z,22.89
2022-11-19T17:53:37.868Z,22.95
2022-11-19T17:55:39.137Z,22.71
2022-11-19T17:57:43.589Z,22.52
2022-11-19T17:59:44.915Z,22.59
2022-11-19T18:01:49.252Z,22.82
2022-11-19T18:03:50.550Z,22.91
2022-11-19T18:05:51.893Z,22.90
2022-11-19T18:07:55.122Z,22.88
2022-11-19T18:09:56.531Z,22.87
2022-11-19T18:12:00.872Z,22.89
2022-11-19T18:14:05.160Z,22.90
2022-11-19T18:16:06.433Z,22.88
2022-11-19T18:18:07.781Z,22.86
2022-11-19T18:20:09.260Z,22.86
2022-11-19T18:22:10.538Z,22.84
2022-11-19T18:24:12.201Z,22.78
2022-11-19T18:26:13.497Z,22.79
2022-11-19T18:28:14.798Z,22.80
2022-11-19T18:30:18.845Z,22.86
2022-11-19T18:32:20.183Z,22.45
2022-11-19T18:34:21.480Z,22.23
2022-11-19T18:36:22.745Z,22.08
2022-11-19T18:38:24.192Z,22.00
2022-11-19T18:40:25.500Z,21.91
2022-11-19T18:42:26.922Z,21.87
2022-11-19T18:44:34.438Z,21.81
2022-11-19T18:46:35.798Z,21.86
2022-11-19T18:48:37.128Z,22.12
2022-11-19T18:50:38.457Z,22.21
2022-11-19T18:52:39.797Z,22.24
2022-11-19T18:54:41.122Z,22.25
2022-11-19T18:56:42.396Z,22.46
2022-11-19T18:58:43.724Z,22.57
2022-11-19T19:00:45.008Z,22.50
2022-11-19T19:02:46.285Z,22.57
2022-11-19T19:04:50.990Z,22.72
2022-11-19T19:06:52.648Z,22.87
2022-11-19T19:08:54.011Z,22.96
2022-11-19T19:11:15.265Z,23.19
2022-11-19T19:13:16.577Z,23.27
2022-11-19T19:15:17.860Z,23.26
2022-11-19T19:17:19.210Z,23.34
2022-11-19T19:19:20.939Z,23.04
2022-11-19T19:21:22.404Z,22.86
2022-11-19T19:23:23.723Z,22.73
2022-11-19T19:25:25.157Z,22.62
2022-11-19T19:27:26.488Z,22.56
2022-11-19T19:29:28.316Z,22.47
2022-11-19T19:31:29.628Z,22.40
2022-11-19T19:33:33.631Z,22.35
2022-11-19T19:35:34.916Z,22.28
2022-11-19T19:37:36.494Z,22.23
2022-11-19T19:39:38.323Z,22.16
2022-11-19T19:41:39.616Z,22.10
2022-11-19T19:43:40.894Z,22.04
2022-11-19T19:45:48.268Z,22.01
2022-11-19T19:47:49.561Z,21.94
2022-11-19T19:49:50.828Z,21.91
2022-11-19T19:51:58.372Z,21.86
2022-11-19T19:53:59.713Z,21.84
2022-11-19T19:56:01.040Z,21.78
2022-11-19T19:58:07.262Z,21.76
2022-11-19T20:00:08.577Z,21.75
2022-11-19T20:02:10.285Z,21.75
2022-11-19T20:04:11.662Z,21.63
2022-11-19T20:06:13.036Z,21.86
2022-11-19T20:08:14.321Z,22.07
2022-11-19T20:10:15.672Z,22.21
2022-11-19T20:12:16.973Z,22.31
2022-11-19T20:14:18.264Z,21.81
2022-11-19T20:16:19.592Z,22.56
2022-11-19T20:18:21.452Z,22.69
2022-11-19T20:20:22.738Z,22.95
2022-11-19T20:22:24.136Z,22.99
2022-11-19T20:24:25.453Z,23.07
2022-11-19T20:26:30.399Z,23.20
2022-11-19T20:28:34.968Z,23.25
2022-11-19T20:30:36.259Z,23.28
2022-11-19T20:32:37.596Z,23.27
2022-11-19T20:34:39.115Z,23.25
2022-11-19T20:36:40.400Z,23.29
2022-11-19T20:38:41.742Z,23.17
2022-11-19T20:40:43.949Z,23.11
2022-11-19T20:43:03.780Z,23.06
2022-11-19T20:45:05.061Z,23.07
2022-11-19T20:47:06.368Z,22.98
2022-11-19T20:49:08.924Z,22.93
2022-11-19T20:51:11.827Z,22.86
2022-11-19T20:53:13.132Z,22.87
2022-11-19T20:55:14.444Z,22.88
2022-11-19T20:57:15.736Z,22.89
2022-11-19T20:59:17.246Z,22.86
2022-11-19T21:01:18.614Z,22.70
2022-11-19T21:03:19.885Z,22.63
2022-11-19T21:05:21.577Z,22.54
2022-11-19T21:07:22.949Z,22.25
2022-11-19T21:09:24.945Z,22.04
2022-11-19T21:11:26.778Z,21.95
2022-11-19T21:13:28.203Z,22.01
2022-11-19T21:15:29.549Z,22.29
2022-11-19T21:17:30.821Z,22.30
2022-11-19T21:19:32.093Z,22.30
2022-11-19T21:21:34.140Z,22.32
2022-11-19T21:23:38.626Z,22.34
2022-11-19T21:25:39.912Z,22.38
2022-11-19T21:27:41.263Z,22.42
2022-11-19T21:29:42.545Z,22.43
2022-11-19T21:31:48.861Z,22.57
2022-11-19T21:33:50.188Z,22.65
2022-11-19T21:35:51.501Z,22.70
2022-11-19T21:37:52.796Z,22.85
2022-11-19T21:39:54.080Z,22.78
2022-11-19T21:41:55.410Z,22.80
2022-11-19T21:43:56.736Z,22.79
2022-11-19T21:45:58.106Z,22.85
2022-11-19T21:48:02.421Z,22.94
2022-11-19T21:50:03.726Z,22.98
2022-11-19T21:52:05.034Z,22.98
2022-11-19T21:54:06.434Z,22.98
2022-11-19T21:56:10.948Z,23.01
2022-11-19T21:58:13.553Z,23.09
2022-11-19T22:00:14.864Z,23.08
2022-11-19T22:02:16.180Z,23.11
2022-11-19T22:04:17.545Z,23.01
2022-11-19T22:06:18.861Z,22.61
2022-11-19T22:08:20.149Z,22.44
2022-11-19T22:10:21.460Z,22.34
2022-11-19T22:12:22.868Z,17.85
2022-11-19T22:14:24.368Z,16.05
2022-11-19T22:16:25.662Z,17.36
2022-11-19T22:18:27.133Z,19.48
2022-11-19T22:20:28.415Z,20.78
2022-11-19T22:22:29.692Z,21.37
2022-11-19T22:24:30.973Z,21.82
2022-11-19T22:26:32.250Z,22.19
2022-11-19T22:28:34.617Z,22.25
2022-11-19T22:30:35.904Z,22.32
2022-11-19T22:32:37.237Z,22.34
2022-11-19T22:34:38.583Z,22.42
2022-11-19T22:36:39.860Z,22.49
2022-11-19T22:38:41.172Z,22.56
2022-11-19T22:40:42.500Z,22.63
2022-11-19T22:42:43.778Z,22.65
2022-11-19T22:44:45.101Z,22.68
2022-11-19T22:46:50.088Z,22.70
2022-11-19T22:48:51.381Z,22.70
2022-11-19T22:50:52.721Z,22.70
2022-11-19T22:52:54.040Z,22.70
2022-11-19T22:54:55.355Z,22.67
2022-11-19T22:56:56.658Z,22.61
2022-11-19T23:00:59.335Z,22.51
2022-11-19T23:03:00.633Z,22.45
2022-11-19T23:05:01.905Z,22.40
2022-11-19T23:07:03.286Z,22.35
2022-11-19T23:09:04.580Z,22.31
2022-11-19T23:11:05.864Z,22.26
2022-11-19T23:13:25.672Z,22.21
2022-11-19T23:15:26.936Z,22.13
2022-11-19T23:17:28.243Z,22.10
2022-11-19T23:19:29.590Z,22.06
2022-11-19T23:21:30.951Z,22.01
2022-11-19T23:23:32.316Z,21.96
2022-11-19T23:25:33.606Z,21.91
2022-11-19T23:27:34.917Z,21.88
2022-11-19T23:29:36.221Z,21.83
2022-11-19T23:31:37.524Z,21.81
2022-11-19T23:33:38.896Z,21.77
2022-11-19T23:35:40.193Z,21.74
2022-11-19T23:37:41.462Z,21.68
2022-11-19T23:39:42.754Z,21.69
2022-11-19T23:41:44.046Z,21.72
2022-11-19T23:43:45.364Z,21.72
2022-11-19T23:45:46.650Z,21.70
2022-11-19T23:47:47.961Z,21.69
2022-11-19T23:49:49.269Z,21.67
2022-11-19T23:51:50.597Z,21.74
2022-11-19T23:53:52.181Z,21.89
2022-11-19T23:55:53.447Z,21.99
2022-11-19T23:57:54.763Z,22.04
2022-11-19T23:59:56.056Z,22.18
